sensor_id;sensor_type;location;lat;lon;timestamp;temperature;humidity
11047;DHT22;5576;50.008;10.596;2022-10-31T00:00:48;11.40;99.90
11047;DHT22;5576;50.008;10.596;2022-10-31T00:03:13;15.90;99.90
11047;DHT22;5576;50.008;10.596;2022-10-31T00:05:42;9.90;99.90
11047;DHT22;5576;50.008;10.596;2022-10-31T00:08:08;11.00;99.90
11047;DHT22;5576;50.008;10.596;2022-10-31T00:10:38;10.90;99.90
11047;DHT22;5576;50.008;10.596;2022-10-31T00:13:04;10.90;99.90
11047;DHT22;5576;50.008;10.596;2022-10-31T00:15:33;15.30;99.90
11047;DHT22;5576;50.008;10.596;2022-10-31T00:17:59;11.20;99.90
11047;DHT22;5576;50.008;10.596;2022-10-31T00:20:25;11.20;99.90
11047;DHT22;5576;50.008;10.596;2022-10-31T00:22:51;11.10;99.90
11047;DHT22;5576;50.008;10.596;2022-10-31T00:25:16;11.20;99.90
11047;DHT22;5576;50.008;10.596;2022-10-31T00:27:42;14.30;99.90
11047;DHT22;5576;50.008;10.596;2022-10-31T00:30:08;10.90;99.90
11047;DHT22;5576;50.008;10.596;2022-10-31T00:32:34;11.00;99.90
11047;DHT22;5576;50.008;10.596;2022-10-31T00:35:00;10.90;99.90
11047;DHT22;5576;50.008;10.596;2022-10-31T00:37:26;14.20;99.90
11047;DHT22;5576;50.008;10.596;2022-10-31T00:39:52;15.10;99.90
11047;DHT22;5576;50.008;10.596;2022-10-31T00:42:18;9.20;99.90
11047;DHT22;5576;50.008;10.596;2022-10-31T00:44:44;7.00;99.90
11047;DHT22;5576;50.008;10.596;2022-10-31T00:47:09;11.00;99.90
11047;DHT22;5576;50.008;10.596;2022-10-31T00:49:35;11.10;99.90
11047;DHT22;5576;50.008;10.596;2022-10-31T00:52:01;11.90;99.90
11047;DHT22;5576;50.008;10.596;2022-10-31T00:54:26;14.00;99.90
11047;DHT22;5576;50.008;10.596;2022-10-31T00:56:52;11.10;99.90
11047;DHT22;5576;50.008;10.596;2022-10-31T00:59:18;11.00;99.90
11047;DHT22;5576;50.008;10.596;2022-10-31T01:01:44;11.00;99.90
11047;DHT22;5576;50.008;10.596;2022-10-31T01:04:09;14.10;99.90
11047;DHT22;5576;50.008;10.596;2022-10-31T01:06:35;11.10;99.90
11047;DHT22;5576;50.008;10.596;2022-10-31T01:09:01;15.50;99.90
11047;DHT22;5576;50.008;10.596;2022-10-31T01:11:27;11.30;99.90
11047;DHT22;5576;50.008;10.596;2022-10-31T01:13:53;11.20;99.90
11047;DHT22;5576;50.008;10.596;2022-10-31T01:16:24;11.20;99.90
11047;DHT22;5576;50.008;10.596;2022-10-31T01:18:51;11.20;99.90
11047;DHT22;5576;50.008;10.596;2022-10-31T01:21:20;11.10;99.90
11047;DHT22;5576;50.008;10.596;2022-10-31T01:23:48;10.90;99.90
11047;DHT22;5576;50.008;10.596;2022-10-31T01:26:16;15.40;99.90
11047;DHT22;5576;50.008;10.596;2022-10-31T01:28:46;14.50;99.90
11047;DHT22;5576;50.008;10.596;2022-10-31T01:31:14;10.70;99.90
11047;DHT22;5576;50.008;10.596;2022-10-31T01:33:39;10.70;99.90
11047;DHT22;5576;50.008;10.596;2022-10-31T01:36:16;10.70;99.90
11047;DHT22;5576;50.008;10.596;2022-10-31T01:38:42;13.40;99.90
11047;DHT22;5576;50.008;10.596;2022-10-31T01:41:10;10.80;99.90
11047;DHT22;5576;50.008;10.596;2022-10-31T01:43:57;9.70;99.90
11047;DHT22;5576;50.008;10.596;2022-10-31T01:46:34;8.10;99.90
11047;DHT22;5576;50.008;10.596;2022-10-31T01:49:05;11.90;99.90
11047;DHT22;5576;50.008;10.596;2022-10-31T01:51:37;10.60;99.90
11047;DHT22;5576;50.008;10.596;2022-10-31T01:54:07;10.50;99.90
11047;DHT22;5576;50.008;10.596;2022-10-31T01:56:34;10.60;99.90
11047;DHT22;5576;50.008;10.596;2022-10-31T01:59:02;10.60;99.90
11047;DHT22;5576;50.008;10.596;2022-10-31T02:01:29;10.50;99.90
11047;DHT22;5576;50.008;10.596;2022-10-31T02:03:55;10.40;99.90
11047;DHT22;5576;50.008;10.596;2022-10-31T02:06:30;10.40;99.90
11047;DHT22;5576;50.008;10.596;2022-10-31T02:08:59;9.30;99.90
11047;DHT22;5576;50.008;10.596;2022-10-31T02:11:27;10.40;99.90
11047;DHT22;5576;50.008;10.596;2022-10-31T02:13:54;10.40;99.90
11047;DHT22;5576;50.008;10.596;2022-10-31T02:16:21;14.90;99.90
11047;DHT22;5576;50.008;10.596;2022-10-31T02:18:47;10.40;99.90
11047;DHT22;5576;50.008;10.596;2022-10-31T02:32:09;13.10;99.90
11047;DHT22;5576;50.008;10.596;2022-10-31T02:37:38;10.70;99.90
11047;DHT22;5576;50.008;10.596;2022-10-31T02:40:17;10.70;99.90
11047;DHT22;5576;50.008;10.596;2022-10-31T02:43:16;10.80;99.90
11047;DHT22;5576;50.008;10.596;2022-10-31T02:45:56;10.90;99.90
11047;DHT22;5576;50.008;10.596;2022-10-31T02:48:27;10.70;99.90
11047;DHT22;5576;50.008;10.596;2022-10-31T02:50:59;9.70;99.90
11047;DHT22;5576;50.008;10.596;2022-10-31T02:53:25;10.80;99.90
11047;DHT22;5576;50.008;10.596;2022-10-31T02:55:57;10.70;99.90
11047;DHT22;5576;50.008;10.596;2022-10-31T02:58:26;10.60;99.90
11047;DHT22;5576;50.008;10.596;2022-10-31T03:01:03;10.60;99.90
11047;DHT22;5576;50.008;10.596;2022-10-31T03:06:36;10.40;99.90
11047;DHT22;5576;50.008;10.596;2022-10-31T03:09:23;10.30;99.90
11047;DHT22;5576;50.008;10.596;2022-10-31T03:14:38;10.30;99.90
11047;DHT22;5576;50.008;10.596;2022-10-31T03:17:07;10.40;99.90
11047;DHT22;5576;50.008;10.596;2022-10-31T03:19:42;8.90;99.90
11047;DHT22;5576;50.008;10.596;2022-10-31T03:22:16;7.40;99.90
11047;DHT22;5576;50.008;10.596;2022-10-31T03:24:43;5.90;99.90
11047;DHT22;5576;50.008;10.596;2022-10-31T03:27:13;8.00;99.90
11047;DHT22;5576;50.008;10.596;2022-10-31T03:29:42;10.10;99.90
11047;DHT22;5576;50.008;10.596;2022-10-31T03:32:15;10.30;99.90
11047;DHT22;5576;50.008;10.596;2022-10-31T03:34:45;10.20;99.90
11047;DHT22;5576;50.008;10.596;2022-10-31T03:37:14;8.70;99.90
11047;DHT22;5576;50.008;10.596;2022-10-31T03:39:43;10.30;99.90
11047;DHT22;5576;50.008;10.596;2022-10-31T03:42:15;11.40;99.90
11047;DHT22;5576;50.008;10.596;2022-10-31T03:44:47;10.50;99.90
11047;DHT22;5576;50.008;10.596;2022-10-31T03:47:15;6.60;99.90
11047;DHT22;5576;50.008;10.596;2022-10-31T03:49:41;10.50;99.90
11047;DHT22;5576;50.008;10.596;2022-10-31T03:52:18;10.60;99.90
11047;DHT22;5576;50.008;10.596;2022-10-31T03:54:46;10.80;99.90
11047;DHT22;5576;50.008;10.596;2022-10-31T03:57:52;11.00;99.90
11047;DHT22;5576;50.008;10.596;2022-10-31T04:00:08;10.90;99.90
11047;DHT22;5576;50.008;10.596;2022-10-31T04:05:36;14.00;99.90
11047;DHT22;5576;50.008;10.596;2022-10-31T04:08:06;10.80;99.90
11047;DHT22;5576;50.008;10.596;2022-10-31T04:10:34;14.80;99.90
11047;DHT22;5576;50.008;10.596;2022-10-31T04:13:08;10.70;99.90
11047;DHT22;5576;50.008;10.596;2022-10-31T04:15:44;10.20;99.90
11047;DHT22;5576;50.008;10.596;2022-10-31T04:18:11;10.70;99.90
11047;DHT22;5576;50.008;10.596;2022-10-31T04:20:39;10.70;99.90
11047;DHT22;5576;50.008;10.596;2022-10-31T04:23:10;10.70;99.90
11047;DHT22;5576;50.008;10.596;2022-10-31T04:25:39;10.70;99.90
11047;DHT22;5576;50.008;10.596;2022-10-31T04:28:05;10.80;99.90
11047;DHT22;5576;50.008;10.596;2022-10-31T04:30:30;10.60;99.90
11047;DHT22;5576;50.008;10.596;2022-10-31T04:32:56;10.90;99.90
11047;DHT22;5576;50.008;10.596;2022-10-31T04:35:22;10.80;99.90
11047;DHT22;5576;50.008;10.596;2022-10-31T04:37:48;10.80;99.90
11047;DHT22;5576;50.008;10.596;2022-10-31T04:40:14;10.80;99.90
11047;DHT22;5576;50.008;10.596;2022-10-31T04:42:59;10.60;99.90
11047;DHT22;5576;50.008;10.596;2022-10-31T04:45:27;10.80;99.90
11047;DHT22;5576;50.008;10.596;2022-10-31T04:47:53;7.80;99.90
11047;DHT22;5576;50.008;10.596;2022-10-31T04:50:19;10.80;99.90
11047;DHT22;5576;50.008;10.596;2022-10-31T04:52:45;12.60;99.90
11047;DHT22;5576;50.008;10.596;2022-10-31T04:55:14;10.80;99.90
11047;DHT22;5576;50.008;10.596;2022-10-31T04:58:00;10.90;99.90
11047;DHT22;5576;50.008;10.596;2022-10-31T05:00:26;10.90;99.90
11047;DHT22;5576;50.008;10.596;2022-10-31T05:02:55;11.00;99.90
11047;DHT22;5576;50.008;10.596;2022-10-31T05:05:27;11.00;99.90
11047;DHT22;5576;50.008;10.596;2022-10-31T05:07:53;11.00;99.90
11047;DHT22;5576;50.008;10.596;2022-10-31T05:10:26;11.00;99.90
11047;DHT22;5576;50.008;10.596;2022-10-31T05:12:56;6.80;99.90
11047;DHT22;5576;50.008;10.596;2022-10-31T05:15:41;11.00;99.90
11047;DHT22;5576;50.008;10.596;2022-10-31T05:18:27;15.10;99.90
11047;DHT22;5576;50.008;10.596;2022-10-31T05:21:13;11.00;99.90
11047;DHT22;5576;50.008;10.596;2022-10-31T05:23:45;10.90;99.90
11047;DHT22;5576;50.008;10.596;2022-10-31T05:26:11;7.20;99.90
11047;DHT22;5576;50.008;10.596;2022-10-31T05:28:36;11.00;99.90
11047;DHT22;5576;50.008;10.596;2022-10-31T05:31:03;11.00;99.90
11047;DHT22;5576;50.008;10.596;2022-10-31T05:33:30;11.00;99.90
11047;DHT22;5576;50.008;10.596;2022-10-31T05:36:15;10.90;99.90
11047;DHT22;5576;50.008;10.596;2022-10-31T05:38:51;10.90;99.90
11047;DHT22;5576;50.008;10.596;2022-10-31T05:41:24;6.50;99.90
11047;DHT22;5576;50.008;10.596;2022-10-31T05:43:50;10.90;99.90
11047;DHT22;5576;50.008;10.596;2022-10-31T05:46:20;10.90;99.90
11047;DHT22;5576;50.008;10.596;2022-10-31T05:49:05;7.50;99.90
11047;DHT22;5576;50.008;10.596;2022-10-31T05:51:51;10.90;99.90
11047;DHT22;5576;50.008;10.596;2022-10-31T05:54:18;11.00;99.90
11047;DHT22;5576;50.008;10.596;2022-10-31T05:56:45;10.90;99.90
11047;DHT22;5576;50.008;10.596;2022-10-31T05:59:11;11.00;99.90
11047;DHT22;5576;50.008;10.596;2022-10-31T06:01:38;10.90;99.90
11047;DHT22;5576;50.008;10.596;2022-10-31T06:04:09;10.90;99.90
11047;DHT22;5576;50.008;10.596;2022-10-31T06:06:36;10.90;99.90
11047;DHT22;5576;50.008;10.596;2022-10-31T06:09:01;10.80;99.90
11047;DHT22;5576;50.008;10.596;2022-10-31T06:11:31;10.80;99.90
11047;DHT22;5576;50.008;10.596;2022-10-31T06:14:05;10.90;99.90
11047;DHT22;5576;50.008;10.596;2022-10-31T06:16:40;10.90;99.90
11047;DHT22;5576;50.008;10.596;2022-10-31T06:19:26;10.80;99.90
11047;DHT22;5576;50.008;10.596;2022-10-31T06:21:52;10.80;99.90
11047;DHT22;5576;50.008;10.596;2022-10-31T06:24:18;9.30;99.90
11047;DHT22;5576;50.008;10.596;2022-10-31T06:27:04;10.90;99.90
11047;DHT22;5576;50.008;10.596;2022-10-31T06:29:31;10.90;99.90
11047;DHT22;5576;50.008;10.596;2022-10-31T06:32:04;10.90;99.90
11047;DHT22;5576;50.008;10.596;2022-10-31T06:34:36;10.90;99.90
11047;DHT22;5576;50.008;10.596;2022-10-31T06:37:01;11.00;99.90
11047;DHT22;5576;50.008;10.596;2022-10-31T06:39:29;14.80;99.90
11047;DHT22;5576;50.008;10.596;2022-10-31T06:41:55;11.10;99.90
11047;DHT22;5576;50.008;10.596;2022-10-31T06:44:22;11.10;99.90
11047;DHT22;5576;50.008;10.596;2022-10-31T06:47:08;11.10;99.90
11047;DHT22;5576;50.008;10.596;2022-10-31T06:49:53;11.50;99.90
11047;DHT22;5576;50.008;10.596;2022-10-31T06:52:21;11.40;99.90
11047;DHT22;5576;50.008;10.596;2022-10-31T06:54:49;14.00;99.90
11047;DHT22;5576;50.008;10.596;2022-10-31T06:57:15;11.30;99.90
11047;DHT22;5576;50.008;10.596;2022-10-31T06:59:41;11.30;99.90
11047;DHT22;5576;50.008;10.596;2022-10-31T07:02:19;11.30;99.90
11047;DHT22;5576;50.008;10.596;2022-10-31T07:04:45;11.40;99.90
11047;DHT22;5576;50.008;10.596;2022-10-31T07:07:13;11.40;99.90
11047;DHT22;5576;50.008;10.596;2022-10-31T07:09:39;11.40;99.90
11047;DHT22;5576;50.008;10.596;2022-10-31T07:12:06;11.50;99.90
11047;DHT22;5576;50.008;10.596;2022-10-31T07:14:37;11.30;99.90
11047;DHT22;5576;50.008;10.596;2022-10-31T07:17:02;11.60;99.90
11047;DHT22;5576;50.008;10.596;2022-10-31T07:19:33;11.50;99.90
11047;DHT22;5576;50.008;10.596;2022-10-31T07:21:59;11.60;99.90
11047;DHT22;5576;50.008;10.596;2022-10-31T07:24:27;11.60;99.90
11047;DHT22;5576;50.008;10.596;2022-10-31T07:26:54;11.70;99.90
11047;DHT22;5576;50.008;10.596;2022-10-31T07:29:19;11.50;99.90
11047;DHT22;5576;50.008;10.596;2022-10-31T07:31:46;11.60;99.90
11047;DHT22;5576;50.008;10.596;2022-10-31T07:34:19;11.60;99.90
11047;DHT22;5576;50.008;10.596;2022-10-31T07:37:04;12.20;99.90
11047;DHT22;5576;50.008;10.596;2022-10-31T07:39:30;11.80;99.90
11047;DHT22;5576;50.008;10.596;2022-10-31T07:44:25;10.70;99.90
11047;DHT22;5576;50.008;10.596;2022-10-31T07:47:10;11.70;99.90
11047;DHT22;5576;50.008;10.596;2022-10-31T07:50:02;11.80;99.90
11047;DHT22;5576;50.008;10.596;2022-10-31T07:52:48;11.80;99.90
11047;DHT22;5576;50.008;10.596;2022-10-31T07:55:34;9.40;99.90
11047;DHT22;5576;50.008;10.596;2022-10-31T07:58:02;11.70;99.90
11047;DHT22;5576;50.008;10.596;2022-10-31T08:00:30;11.80;99.90
11047;DHT22;5576;50.008;10.596;2022-10-31T08:02:58;11.70;99.90
11047;DHT22;5576;50.008;10.596;2022-10-31T08:05:45;9.10;99.90
11047;DHT22;5576;50.008;10.596;2022-10-31T08:08:31;11.80;99.90
11047;DHT22;5576;50.008;10.596;2022-10-31T08:10:58;11.90;99.90
11047;DHT22;5576;50.008;10.596;2022-10-31T08:13:24;11.90;99.90
11047;DHT22;5576;50.008;10.596;2022-10-31T08:15:52;11.90;99.90
11047;DHT22;5576;50.008;10.596;2022-10-31T08:18:23;11.90;99.90
11047;DHT22;5576;50.008;10.596;2022-10-31T08:20:50;12.00;99.90
11047;DHT22;5576;50.008;10.596;2022-10-31T08:23:15;10.60;99.90
11047;DHT22;5576;50.008;10.596;2022-10-31T08:25:42;11.90;99.90
11047;DHT22;5576;50.008;10.596;2022-10-31T08:28:10;12.00;99.90
11047;DHT22;5576;50.008;10.596;2022-10-31T08:30:37;12.10;99.90
11047;DHT22;5576;50.008;10.596;2022-10-31T08:33:23;15.60;99.90
11047;DHT22;5576;50.008;10.596;2022-10-31T08:36:09;15.10;99.90
11047;DHT22;5576;50.008;10.596;2022-10-31T08:38:52;15.70;99.90
11047;DHT22;5576;50.008;10.596;2022-10-31T08:41:17;12.20;99.90
11047;DHT22;5576;50.008;10.596;2022-10-31T08:43:43;12.30;99.90
11047;DHT22;5576;50.008;10.596;2022-10-31T08:46:10;12.30;99.90
11047;DHT22;5576;50.008;10.596;2022-10-31T08:48:37;15.70;99.90
11047;DHT22;5576;50.008;10.596;2022-10-31T08:51:03;12.30;99.90
11047;DHT22;5576;50.008;10.596;2022-10-31T08:53:29;12.40;99.90
11047;DHT22;5576;50.008;10.596;2022-10-31T08:56:15;12.50;99.90
11047;DHT22;5576;50.008;10.596;2022-10-31T08:58:41;15.70;99.90
11047;DHT22;5576;50.008;10.596;2022-10-31T09:01:08;12.60;99.90
11047;DHT22;5576;50.008;10.596;2022-10-31T09:03:35;12.60;99.90
11047;DHT22;5576;50.008;10.596;2022-10-31T09:06:02;12.60;99.90
11047;DHT22;5576;50.008;10.596;2022-10-31T09:08:30;12.70;99.90
11047;DHT22;5576;50.008;10.596;2022-10-31T09:10:57;12.70;99.90
11047;DHT22;5576;50.008;10.596;2022-10-31T09:16:28;12.70;99.90
11047;DHT22;5576;50.008;10.596;2022-10-31T09:18:54;12.70;99.90
11047;DHT22;5576;50.008;10.596;2022-10-31T09:21:20;12.80;99.90
11047;DHT22;5576;50.008;10.596;2022-10-31T09:23:46;12.70;99.90
11047;DHT22;5576;50.008;10.596;2022-10-31T09:26:12;9.60;99.90
11047;DHT22;5576;50.008;10.596;2022-10-31T09:28:42;13.00;99.90
11047;DHT22;5576;50.008;10.596;2022-10-31T09:31:11;13.00;99.90
11047;DHT22;5576;50.008;10.596;2022-10-31T09:33:45;13.00;99.90
11047;DHT22;5576;50.008;10.596;2022-10-31T09:36:31;14.30;99.90
11047;DHT22;5576;50.008;10.596;2022-10-31T09:38:57;13.10;99.90
11047;DHT22;5576;50.008;10.596;2022-10-31T09:41:30;13.20;99.90
11047;DHT22;5576;50.008;10.596;2022-10-31T09:52:17;13.20;99.90
11047;DHT22;5576;50.008;10.596;2022-10-31T09:54:49;13.20;99.90
11047;DHT22;5576;50.008;10.596;2022-10-31T09:57:24;10.40;99.90
11047;DHT22;5576;50.008;10.596;2022-10-31T09:59:51;13.30;99.90
11047;DHT22;5576;50.008;10.596;2022-10-31T10:02:44;13.40;99.90
11047;DHT22;5576;50.008;10.596;2022-10-31T10:05:15;13.10;99.90
11047;DHT22;5576;50.008;10.596;2022-10-31T10:08:18;13.50;99.90
11047;DHT22;5576;50.008;10.596;2022-10-31T10:14:19;13.50;99.90
11047;DHT22;5576;50.008;10.596;2022-10-31T10:17:07;13.40;99.90
11047;DHT22;5576;50.008;10.596;2022-10-31T10:22:21;13.50;99.90
11047;DHT22;5576;50.008;10.596;2022-10-31T10:30:22;13.50;99.90
11047;DHT22;5576;50.008;10.596;2022-10-31T10:32:54;16.50;99.90
11047;DHT22;5576;50.008;10.596;2022-10-31T10:35:44;13.60;99.90
11047;DHT22;5576;50.008;10.596;2022-10-31T10:41:05;13.90;99.90
11047;DHT22;5576;50.008;10.596;2022-10-31T10:43:39;13.90;99.90
11047;DHT22;5576;50.008;10.596;2022-10-31T10:49:49;14.00;99.90
11047;DHT22;5576;50.008;10.596;2022-10-31T10:52:25;14.00;99.90
11047;DHT22;5576;50.008;10.596;2022-10-31T11:00:01;14.10;99.90
11047;DHT22;5576;50.008;10.596;2022-10-31T11:02:31;14.10;99.90
11047;DHT22;5576;50.008;10.596;2022-10-31T11:04:58;14.10;99.90
11047;DHT22;5576;50.008;10.596;2022-10-31T11:07:25;14.30;99.90
11047;DHT22;5576;50.008;10.596;2022-10-31T11:10:04;14.30;99.90
11047;DHT22;5576;50.008;10.596;2022-10-31T11:12:32;14.40;99.90
11047;DHT22;5576;50.008;10.596;2022-10-31T11:15:06;14.50;99.90
11047;DHT22;5576;50.008;10.596;2022-10-31T11:17:36;14.70;99.90
11047;DHT22;5576;50.008;10.596;2022-10-31T11:20:22;10.40;99.90
11047;DHT22;5576;50.008;10.596;2022-10-31T11:22:49;14.80;99.90
11047;DHT22;5576;50.008;10.596;2022-10-31T11:25:23;14.80;99.90
11047;DHT22;5576;50.008;10.596;2022-10-31T11:28:09;14.90;99.90
11047;DHT22;5576;50.008;10.596;2022-10-31T11:30:47;14.90;99.90
11047;DHT22;5576;50.008;10.596;2022-10-31T11:33:20;15.00;99.90
11047;DHT22;5576;50.008;10.596;2022-10-31T11:35:48;17.80;99.90
11047;DHT22;5576;50.008;10.596;2022-10-31T11:38:20;16.60;99.90
11047;DHT22;5576;50.008;10.596;2022-10-31T11:40:57;17.30;99.90
11047;DHT22;5576;50.008;10.596;2022-10-31T11:43:24;15.10;99.90
11047;DHT22;5576;50.008;10.596;2022-10-31T11:45:50;15.30;99.90
11047;DHT22;5576;50.008;10.596;2022-10-31T11:48:19;15.20;99.90
11047;DHT22;5576;50.008;10.596;2022-10-31T11:51:01;15.30;99.90
11047;DHT22;5576;50.008;10.596;2022-10-31T11:53:30;12.00;99.90
11047;DHT22;5576;50.008;10.596;2022-10-31T11:56:15;15.50;99.90
11047;DHT22;5576;50.008;10.596;2022-10-31T11:58:41;15.50;99.90
11047;DHT22;5576;50.008;10.596;2022-10-31T12:01:30;15.70;99.90
11047;DHT22;5576;50.008;10.596;2022-10-31T12:04:08;14.00;99.90
11047;DHT22;5576;50.008;10.596;2022-10-31T12:06:36;15.90;99.90
11047;DHT22;5576;50.008;10.596;2022-10-31T12:20:22;16.30;99.90
11047;DHT22;5576;50.008;10.596;2022-10-31T12:23:03;18.30;99.90
11047;DHT22;5576;50.008;10.596;2022-10-31T12:25:48;16.30;99.90
11047;DHT22;5576;50.008;10.596;2022-10-31T12:31:33;16.30;99.90
11047;DHT22;5576;50.008;10.596;2022-10-31T12:39:22;18.40;99.90
11047;DHT22;5576;50.008;10.596;2022-10-31T12:41:53;16.40;99.90
11047;DHT22;5576;50.008;10.596;2022-10-31T12:47:26;16.50;99.90
11047;DHT22;5576;50.008;10.596;2022-10-31T12:50:15;16.50;99.90
11047;DHT22;5576;50.008;10.596;2022-10-31T13:00:45;16.50;99.90
11047;DHT22;5576;50.008;10.596;2022-10-31T13:03:18;16.50;99.90
11047;DHT22;5576;50.008;10.596;2022-10-31T13:05:47;18.40;99.90
11047;DHT22;5576;50.008;10.596;2022-10-31T13:08:22;19.10;99.90
11047;DHT22;5576;50.008;10.596;2022-10-31T13:10:55;20.00;99.90
11047;DHT22;5576;50.008;10.596;2022-10-31T13:16:15;16.60;99.90
11047;DHT22;5576;50.008;10.596;2022-10-31T13:18:47;18.30;99.90
11047;DHT22;5576;50.008;10.596;2022-10-31T13:21:36;16.60;99.90
11047;DHT22;5576;50.008;10.596;2022-10-31T13:24:07;18.30;99.90
11047;DHT22;5576;50.008;10.596;2022-10-31T13:26:40;16.60;99.90
11047;DHT22;5576;50.008;10.596;2022-10-31T13:31:43;16.60;99.90
11047;DHT22;5576;50.008;10.596;2022-10-31T13:42:31;16.60;99.90
11047;DHT22;5576;50.008;10.596;2022-10-31T13:45:17;16.80;99.90
11047;DHT22;5576;50.008;10.596;2022-10-31T13:47:56;16.70;99.90
11047;DHT22;5576;50.008;10.596;2022-10-31T13:50:25;18.30;99.90
11047;DHT22;5576;50.008;10.596;2022-10-31T13:52:51;16.70;99.90
11047;DHT22;5576;50.008;10.596;2022-10-31T13:55:42;16.60;99.90
11047;DHT22;5576;50.008;10.596;2022-10-31T13:58:26;16.60;99.90
11047;DHT22;5576;50.008;10.596;2022-10-31T14:03:33;16.60;99.90
11047;DHT22;5576;50.008;10.596;2022-10-31T14:06:01;16.60;99.90
11047;DHT22;5576;50.008;10.596;2022-10-31T14:08:27;16.60;99.90
11047;DHT22;5576;50.008;10.596;2022-10-31T14:10:56;16.60;99.90
11047;DHT22;5576;50.008;10.596;2022-10-31T14:15:57;16.60;99.90
11047;DHT22;5576;50.008;10.596;2022-10-31T14:18:30;16.50;99.90
11047;DHT22;5576;50.008;10.596;2022-10-31T14:20:56;16.60;99.90
11047;DHT22;5576;50.008;10.596;2022-10-31T14:23:39;16.50;99.90
11047;DHT22;5576;50.008;10.596;2022-10-31T14:28:55;16.50;99.90
11047;DHT22;5576;50.008;10.596;2022-10-31T14:31:39;15.40;99.90
11047;DHT22;5576;50.008;10.596;2022-10-31T14:34:21;16.50;99.90
11047;DHT22;5576;50.008;10.596;2022-10-31T14:37:03;16.50;99.90
11047;DHT22;5576;50.008;10.596;2022-10-31T14:45:20;16.50;99.90
11047;DHT22;5576;50.008;10.596;2022-10-31T14:55:51;16.40;99.90
11047;DHT22;5576;50.008;10.596;2022-10-31T14:58:22;16.30;99.90
11047;DHT22;5576;50.008;10.596;2022-10-31T15:00:54;16.20;99.90
11047;DHT22;5576;50.008;10.596;2022-10-31T15:05:54;20.50;99.90
11047;DHT22;5576;50.008;10.596;2022-10-31T15:08:44;16.10;99.90
11047;DHT22;5576;50.008;10.596;2022-10-31T15:11:26;16.10;99.90
11047;DHT22;5576;50.008;10.596;2022-10-31T15:13:54;16.00;99.90
11047;DHT22;5576;50.008;10.596;2022-10-31T15:16:24;16.10;99.90
11047;DHT22;5576;50.008;10.596;2022-10-31T15:18:56;17.80;99.90
11047;DHT22;5576;50.008;10.596;2022-10-31T15:21:24;16.00;99.90
11047;DHT22;5576;50.008;10.596;2022-10-31T15:23:52;16.00;99.90
11047;DHT22;5576;50.008;10.596;2022-10-31T15:26:21;15.90;99.90
11047;DHT22;5576;50.008;10.596;2022-10-31T15:29:05;15.80;99.90
11047;DHT22;5576;50.008;10.596;2022-10-31T15:31:32;15.80;99.90
11047;DHT22;5576;50.008;10.596;2022-10-31T15:34:05;15.80;99.90
11047;DHT22;5576;50.008;10.596;2022-10-31T15:36:32;15.80;99.90
11047;DHT22;5576;50.008;10.596;2022-10-31T15:38:58;15.80;99.90
11047;DHT22;5576;50.008;10.596;2022-10-31T15:44:10;15.80;99.90
11047;DHT22;5576;50.008;10.596;2022-10-31T15:46:37;15.80;99.90
11047;DHT22;5576;50.008;10.596;2022-10-31T15:49:03;15.70;99.90
11047;DHT22;5576;50.008;10.596;2022-10-31T15:51:33;15.60;99.90
11047;DHT22;5576;50.008;10.596;2022-10-31T15:53:59;15.50;99.90
11047;DHT22;5576;50.008;10.596;2022-10-31T15:56:28;15.40;99.90
11047;DHT22;5576;50.008;10.596;2022-10-31T15:58:56;15.40;99.90
11047;DHT22;5576;50.008;10.596;2022-10-31T16:01:28;15.30;99.90
11047;DHT22;5576;50.008;10.596;2022-10-31T16:04:00;15.30;99.90
11047;DHT22;5576;50.008;10.596;2022-10-31T16:06:26;15.30;99.90
11047;DHT22;5576;50.008;10.596;2022-10-31T16:08:52;15.30;99.90
11047;DHT22;5576;50.008;10.596;2022-10-31T16:13:55;15.20;99.90
11047;DHT22;5576;50.008;10.596;2022-10-31T16:16:22;15.10;99.90
11047;DHT22;5576;50.008;10.596;2022-10-31T16:18:50;17.30;99.90
11047;DHT22;5576;50.008;10.596;2022-10-31T16:21:26;15.10;99.90
11047;DHT22;5576;50.008;10.596;2022-10-31T16:23:57;15.10;99.90
11047;DHT22;5576;50.008;10.596;2022-10-31T16:26:24;15.10;99.90
11047;DHT22;5576;50.008;10.596;2022-10-31T16:28:52;15.10;99.90
11047;DHT22;5576;50.008;10.596;2022-10-31T16:31:27;15.00;99.90
11047;DHT22;5576;50.008;10.596;2022-10-31T16:34:04;15.00;99.90
11047;DHT22;5576;50.008;10.596;2022-10-31T16:36:32;14.90;99.90
11047;DHT22;5576;50.008;10.596;2022-10-31T16:38:58;14.80;99.90
11047;DHT22;5576;50.008;10.596;2022-10-31T16:41:24;12.90;99.90
11047;DHT22;5576;50.008;10.596;2022-10-31T16:43:51;14.70;99.90
11047;DHT22;5576;50.008;10.596;2022-10-31T16:46:22;14.80;99.90
11047;DHT22;5576;50.008;10.596;2022-10-31T16:48:49;14.70;99.90
11047;DHT22;5576;50.008;10.596;2022-10-31T16:51:15;14.60;99.90
11047;DHT22;5576;50.008;10.596;2022-10-31T16:53:40;14.60;99.90
11047;DHT22;5576;50.008;10.596;2022-10-31T16:56:15;14.50;99.90
11047;DHT22;5576;50.008;10.596;2022-10-31T16:58:42;14.40;99.90
11047;DHT22;5576;50.008;10.596;2022-10-31T17:01:08;14.30;99.90
11047;DHT22;5576;50.008;10.596;2022-10-31T17:03:35;18.00;99.90
11047;DHT22;5576;50.008;10.596;2022-10-31T17:06:00;14.30;99.90
11047;DHT22;5576;50.008;10.596;2022-10-31T17:08:26;18.50;99.90
11047;DHT22;5576;50.008;10.596;2022-10-31T17:10:54;18.30;99.90
11047;DHT22;5576;50.008;10.596;2022-10-31T17:13:24;17.30;99.90
11047;DHT22;5576;50.008;10.596;2022-10-31T17:15:53;14.20;99.90
11047;DHT22;5576;50.008;10.596;2022-10-31T17:18:19;14.00;99.90
11047;DHT22;5576;50.008;10.596;2022-10-31T17:20:45;14.00;99.90
11047;DHT22;5576;50.008;10.596;2022-10-31T17:23:13;14.00;99.90
11047;DHT22;5576;50.008;10.596;2022-10-31T17:25:40;13.90;99.90
11047;DHT22;5576;50.008;10.596;2022-10-31T17:28:06;15.60;99.90
11047;DHT22;5576;50.008;10.596;2022-10-31T17:30:32;13.90;99.90
11047;DHT22;5576;50.008;10.596;2022-10-31T17:32:59;10.40;99.90
11047;DHT22;5576;50.008;10.596;2022-10-31T17:35:25;13.90;99.90
11047;DHT22;5576;50.008;10.596;2022-10-31T17:37:51;13.90;99.90
11047;DHT22;5576;50.008;10.596;2022-10-31T17:40:18;13.90;99.90
11047;DHT22;5576;50.008;10.596;2022-10-31T17:42:53;13.80;99.90
11047;DHT22;5576;50.008;10.596;2022-10-31T17:45:20;13.80;99.90
11047;DHT22;5576;50.008;10.596;2022-10-31T17:47:48;13.80;99.90
11047;DHT22;5576;50.008;10.596;2022-10-31T17:50:15;13.60;99.90
11047;DHT22;5576;50.008;10.596;2022-10-31T17:52:41;13.60;99.90
11047;DHT22;5576;50.008;10.596;2022-10-31T17:55:07;13.50;99.90
11047;DHT22;5576;50.008;10.596;2022-10-31T17:57:34;13.50;99.90
11047;DHT22;5576;50.008;10.596;2022-10-31T18:00:03;13.60;99.90
11047;DHT22;5576;50.008;10.596;2022-10-31T18:02:32;13.70;99.90
11047;DHT22;5576;50.008;10.596;2022-10-31T18:04:58;13.60;99.90
11047;DHT22;5576;50.008;10.596;2022-10-31T18:07:27;13.90;99.90
11047;DHT22;5576;50.008;10.596;2022-10-31T18:09:52;13.60;99.90